Terminal Aerodrome Forecast
Issued by NWS Blacksburg, VA

Home | Current Version | Previous Version | Text Only | Print | Product List | Glossary On
Versions: 1 2 3 4 5 6 7 8 9 10 11 12 13 14 15 16 17 18 19 20 21 22 23 24 25 26 27 28 29 30 31 32 33 34 35 36 37 38 39 40 41 42 43 44 45
000
FTUS41 KRNK 031139
TAFLYH
TAF
KLYH 031139Z 0312/0412 04005KT P6SM OVC030
     FM031600 10006KT 5SM -FZRA BR OVC022
     FM032000 15007KT 5SM -RA BR OVC012
     FM032300 17008KT 2SM BR OVC005
     FM040500 21008KT 4SM BR OVC003 WS020/25046KT=

USA.gov is the U.S. government's official web portal to all federal, state and local government web resources and services.